createdAt,value
2019-02-14T00:00:27.226Z,61.55
2019-02-14T00:02:59.064Z,61.52
2019-02-14T00:05:29.167Z,61.28
2019-02-14T00:07:59.334Z,61.53
2019-02-14T00:10:47.012Z,61.30
2019-02-14T00:13:17.266Z,61.45
2019-02-14T00:15:47.545Z,61.63
2019-02-14T00:18:18.094Z,61.83
2019-02-14T00:20:48.261Z,61.41
2019-02-14T00:23:18.628Z,61.29
2019-02-14T00:25:48.847Z,61.47
2019-02-14T00:28:19.089Z,61.62
2019-02-14T00:30:49.417Z,61.71
2019-02-14T00:33:19.557Z,61.17
2019-02-14T00:35:49.727Z,61.10
2019-02-14T00:38:19.977Z,61.08
2019-02-14T00:40:51.051Z,61.04
2019-02-14T00:43:21.243Z,61.03
2019-02-14T00:45:52.205Z,61.59
2019-02-14T00:48:22.515Z,61.27
2019-02-14T00:50:53.017Z,60.87
2019-02-14T00:53:23.465Z,60.73
2019-02-14T00:55:53.639Z,60.84
2019-02-14T00:58:23.820Z,60.74
2019-02-14T01:00:54.045Z,60.78
2019-02-14T01:03:24.312Z,60.40
2019-02-14T01:05:54.540Z,60.57
2019-02-14T01:08:24.805Z,61.42
2019-02-14T01:10:57.012Z,61.15
2019-02-14T01:13:27.231Z,60.99
2019-02-14T01:15:57.425Z,61.09
2019-02-14T01:18:27.818Z,61.59
2019-02-14T01:20:58.047Z,61.44
2019-02-14T01:23:28.199Z,61.65
2019-02-14T01:25:58.593Z,61.63
2019-02-14T01:28:28.789Z,62.21
2019-02-14T01:31:00.141Z,62.11
2019-02-14T01:33:30.324Z,62.23
2019-02-14T01:36:00.585Z,62.39
2019-02-14T01:38:30.904Z,62.76
2019-02-14T01:41:01.177Z,62.97
2019-02-14T01:43:31.757Z,63.28
2019-02-14T01:46:01.901Z,63.13
2019-02-14T01:48:32.229Z,63.44
2019-02-14T01:51:02.435Z,63.64
2019-02-14T01:53:32.669Z,63.75
2019-02-14T01:56:02.867Z,63.82
2019-02-14T01:58:33.551Z,64.04
2019-02-14T02:01:04.101Z,63.69
2019-02-14T02:03:34.263Z,63.54
2019-02-14T02:06:04.542Z,64.14
2019-02-14T02:08:34.797Z,63.98
2019-02-14T02:11:05.811Z,64.46
2019-02-14T02:13:35.969Z,64.38
2019-02-14T02:16:06.076Z,64.49
2019-02-14T02:18:36.980Z,64.39
2019-02-14T02:21:08.377Z,64.63
2019-02-14T02:23:38.578Z,64.43
2019-02-14T02:26:08.807Z,64.29
2019-02-14T02:28:38.915Z,64.37
2019-02-14T02:31:09.137Z,64.63
2019-02-14T02:33:39.336Z,64.35
2019-02-14T02:36:10.599Z,64.47
2019-02-14T02:38:40.747Z,64.44
2019-02-14T02:41:10.972Z,64.93
2019-02-14T02:43:41.113Z,65.44
2019-02-14T02:46:11.257Z,64.78
2019-02-14T02:48:42.435Z,64.72
2019-02-14T02:51:12.590Z,64.85
2019-02-14T02:53:42.784Z,64.79
2019-02-14T02:56:13.080Z,64.92
2019-02-14T02:58:43.258Z,65.02
2019-02-14T03:01:13.442Z,66.10
2019-02-14T03:03:43.670Z,65.44
2019-02-14T03:06:13.851Z,65.28
2019-02-14T03:08:44.448Z,65.07
2019-02-14T03:11:14.682Z,65.10
2019-02-14T03:13:49.305Z,65.22
2019-02-14T03:16:19.503Z,65.50
2019-02-14T03:18:50.181Z,65.47
2019-02-14T03:21:20.373Z,66.30
2019-02-14T03:23:50.519Z,65.82
2019-02-14T03:26:20.975Z,65.61
2019-02-14T03:28:51.162Z,65.37
2019-02-14T03:31:21.309Z,65.36
2019-02-14T03:33:51.465Z,65.08
2019-02-14T03:36:21.869Z,65.20
2019-02-14T03:38:52.053Z,65.56
2019-02-14T03:41:22.207Z,65.07
2019-02-14T03:43:52.638Z,65.03
2019-02-14T03:46:22.988Z,64.82
2019-02-14T03:48:53.273Z,65.00
2019-02-14T03:51:23.556Z,65.31
2019-02-14T03:53:53.758Z,65.82
2019-02-14T03:56:23.958Z,65.46
2019-02-14T03:58:54.231Z,65.73
2019-02-14T04:01:24.588Z,65.62
2019-02-14T04:03:54.811Z,65.81
2019-02-14T04:06:29.729Z,65.68
2019-02-14T04:09:10.612Z,65.61
2019-02-14T04:11:41.085Z,65.43
2019-02-14T04:14:11.252Z,65.71
2019-02-14T04:16:41.451Z,65.56
2019-02-14T04:19:11.681Z,65.74
2019-02-14T04:21:42.318Z,65.52
2019-02-14T04:24:12.836Z,65.76
2019-02-14T04:26:52.789Z,65.65
2019-02-14T04:29:24.288Z,65.79
2019-02-14T04:31:54.792Z,65.79
2019-02-14T04:34:25.070Z,66.02
2019-02-14T04:36:55.898Z,66.05
2019-02-14T04:39:33.541Z,66.47
2019-02-14T04:42:06.738Z,66.61
2019-02-14T04:44:39.286Z,66.31
2019-02-14T04:47:09.445Z,67.27
2019-02-14T04:49:39.613Z,67.10
2019-02-14T04:52:13.352Z,67.04
2019-02-14T04:54:45.411Z,66.58
2019-02-14T04:57:18.748Z,66.49
2019-02-14T04:59:50.549Z,66.88
2019-02-14T05:02:20.795Z,67.24
2019-02-14T05:04:52.792Z,66.49
2019-02-14T05:07:24.632Z,66.56
2019-02-14T05:09:56.900Z,66.27
2019-02-14T05:12:26.819Z,66.15
2019-02-14T05:14:57.048Z,66.39
2019-02-14T05:17:27.249Z,66.29
2019-02-14T05:19:57.521Z,66.22
2019-02-14T05:22:32.965Z,66.47
2019-02-14T05:25:05.594Z,66.11
2019-02-14T05:27:36.323Z,65.85
2019-02-14T05:30:07.143Z,66.13
2019-02-14T05:32:37.303Z,65.85
2019-02-14T05:35:12.644Z,66.12
2019-02-14T05:37:42.979Z,66.04
2019-02-14T05:40:14.204Z,66.46
2019-02-14T05:42:46.755Z,65.85
2019-02-14T05:45:16.912Z,66.08
2019-02-14T05:47:47.165Z,66.12
2019-02-14T05:50:18.077Z,66.19
2019-02-14T05:52:51.147Z,66.15
2019-02-14T05:55:24.302Z,66.29
2019-02-14T05:57:54.478Z,66.34
2019-02-14T06:00:24.612Z,66.68
2019-02-14T06:02:54.799Z,66.79
2019-02-14T06:05:24.950Z,67.47
2019-02-14T06:07:55.683Z,66.52
2019-02-14T06:10:25.842Z,67.07
2019-02-14T06:12:56.000Z,67.06
2019-02-14T06:15:26.223Z,66.75
2019-02-14T06:17:56.394Z,66.73
2019-02-14T06:20:26.568Z,66.66
2019-02-14T06:22:56.723Z,66.61
2019-02-14T06:25:26.889Z,66.65
2019-02-14T06:27:58.013Z,67.04
2019-02-14T06:30:28.215Z,66.91
2019-02-14T06:32:58.352Z,66.66
2019-02-14T06:35:28.760Z,66.84
2019-02-14T06:37:59.057Z,67.17
2019-02-14T06:40:29.204Z,66.83
2019-02-14T06:42:59.343Z,66.59
2019-02-14T06:45:29.612Z,66.63
2019-02-14T06:47:59.763Z,66.63
2019-02-14T06:50:34.809Z,66.71
2019-02-14T06:53:01.824Z,66.58
2019-02-14T06:55:32.176Z,66.94
2019-02-14T06:58:02.882Z,67.02
2019-02-14T07:00:33.021Z,66.70
2019-02-14T07:03:03.922Z,66.73
2019-02-14T07:05:34.107Z,66.73
2019-02-14T07:08:04.628Z,67.07
2019-02-14T07:10:34.794Z,67.58
2019-02-14T07:13:05.272Z,67.93
2019-02-14T07:15:35.465Z,67.77
2019-02-14T07:18:07.916Z,67.82
2019-02-14T07:20:39.202Z,67.31
2019-02-14T07:23:09.366Z,67.26
2019-02-14T07:25:39.520Z,67.51
2019-02-14T07:28:09.765Z,67.57
2019-02-14T07:30:39.918Z,67.28
2019-02-14T07:33:10.108Z,67.36
2019-02-14T07:35:40.684Z,67.51
2019-02-14T07:38:10.888Z,67.57
2019-02-14T07:40:41.012Z,67.45
2019-02-14T07:43:11.226Z,67.32
2019-02-14T07:45:41.419Z,66.82
2019-02-14T07:48:11.540Z,66.73
2019-02-14T07:50:41.672Z,66.45
2019-02-14T07:53:11.949Z,66.42
2019-02-14T07:55:42.400Z,66.14
2019-02-14T07:58:13.646Z,65.96
2019-02-14T08:00:43.839Z,65.97
2019-02-14T08:03:14.093Z,65.80
2019-02-14T08:05:44.269Z,66.22
2019-02-14T08:08:14.480Z,66.13
2019-02-14T08:10:44.752Z,65.77
2019-02-14T08:13:15.031Z,65.70
2019-02-14T08:15:45.166Z,65.51
2019-02-14T08:18:15.319Z,65.45
2019-02-14T08:20:45.522Z,65.36
2019-02-14T08:23:17.300Z,65.13
2019-02-14T08:25:47.572Z,65.14
2019-02-14T08:28:17.855Z,64.81
2019-02-14T08:30:47.971Z,64.70
2019-02-14T08:33:18.618Z,64.85
2019-02-14T08:35:48.752Z,64.48
2019-02-14T08:38:18.928Z,64.43
2019-02-14T08:40:49.115Z,64.52
2019-02-14T08:43:19.247Z,64.14
2019-02-14T08:45:49.461Z,63.88
2019-02-14T08:48:20.160Z,63.42
2019-02-14T08:50:51.091Z,63.22
2019-02-14T08:53:21.636Z,63.80
2019-02-14T08:55:51.905Z,63.77
2019-02-14T08:58:22.351Z,62.43
2019-02-14T09:00:52.509Z,61.94
2019-02-14T09:03:22.640Z,61.76
2019-02-14T09:05:52.816Z,61.15
2019-02-14T09:08:22.973Z,61.00
2019-02-14T09:10:54.114Z,60.67
2019-02-14T09:13:26.287Z,60.52
2019-02-14T09:15:56.460Z,60.40
2019-02-14T09:18:26.583Z,60.17
2019-02-14T09:20:56.733Z,59.77
2019-02-14T09:23:28.796Z,59.70
2019-02-14T09:26:02.541Z,59.64
2019-02-14T09:28:32.868Z,59.15
2019-02-14T09:31:04.499Z,59.31
2019-02-14T09:33:34.681Z,59.23
2019-02-14T09:36:04.845Z,58.73
2019-02-14T09:38:35.039Z,58.62
2019-02-14T09:41:05.298Z,58.60
2019-02-14T09:43:35.424Z,58.20
2019-02-14T09:46:05.623Z,58.08
2019-02-14T09:48:35.765Z,58.17
2019-02-14T09:51:07.433Z,57.37
2019-02-14T09:53:37.708Z,57.11
2019-02-14T09:56:07.962Z,57.01
2019-02-14T09:58:38.652Z,56.95
2019-02-14T10:01:08.845Z,56.86
2019-02-14T10:03:38.941Z,56.19
2019-02-14T10:06:09.115Z,56.33
2019-02-14T10:08:39.388Z,56.77
2019-02-14T10:11:09.891Z,56.08
2019-02-14T10:13:41.187Z,56.01
2019-02-14T10:16:12.408Z,56.32
2019-02-14T10:18:42.665Z,56.62
2019-02-14T10:21:12.757Z,56.80
2019-02-14T10:23:45.315Z,56.68
2019-02-14T10:26:18.452Z,56.52
2019-02-14T10:28:48.594Z,56.04
2019-02-14T10:31:18.773Z,56.23
2019-02-14T10:33:48.966Z,56.45
2019-02-14T10:36:19.267Z,55.91
2019-02-14T10:38:49.474Z,55.37
2019-02-14T10:41:19.604Z,55.28
2019-02-14T10:43:49.845Z,55.17
2019-02-14T10:46:19.999Z,55.46
2019-02-14T10:48:50.319Z,55.66
2019-02-14T10:51:20.463Z,55.01
2019-02-14T10:53:50.745Z,55.43
2019-02-14T10:56:21.010Z,54.98
2019-02-14T10:58:51.169Z,54.47
2019-02-14T11:01:21.364Z,53.96
2019-02-14T11:03:51.506Z,53.94
2019-02-14T11:06:22.110Z,53.43
2019-02-14T11:08:52.320Z,53.92
2019-02-14T11:11:22.432Z,53.50
2019-02-14T11:13:52.591Z,53.28
2019-02-14T11:16:22.714Z,52.93
2019-02-14T11:18:52.900Z,52.72
2019-02-14T11:21:23.082Z,53.29
2019-02-14T11:23:53.276Z,53.12
2019-02-14T11:26:23.410Z,52.56
2019-02-14T11:28:53.790Z,52.16
2019-02-14T11:31:24.418Z,52.43
2019-02-14T11:33:54.563Z,52.06
2019-02-14T11:36:24.715Z,52.24
2019-02-14T11:38:55.090Z,51.87
2019-02-14T11:41:25.254Z,51.63
2019-02-14T11:43:55.751Z,50.55
2019-02-14T11:46:25.930Z,50.99
2019-02-14T11:48:56.080Z,48.95
2019-02-14T11:51:26.369Z,48.50
2019-02-14T11:53:56.680Z,48.33
2019-02-14T11:56:26.834Z,47.30
2019-02-14T11:58:58.040Z,46.98
2019-02-14T12:01:28.205Z,47.44
2019-02-14T12:03:58.371Z,47.00
2019-02-14T12:06:28.547Z,47.28
2019-02-14T12:09:00.368Z,47.25
2019-02-14T12:11:30.761Z,47.32
2019-02-14T12:14:00.912Z,46.67
2019-02-14T12:16:31.030Z,47.39
2019-02-14T12:19:01.150Z,45.64
2019-02-14T12:21:31.260Z,45.48
2019-02-14T12:24:01.383Z,43.04
2019-02-14T12:26:31.543Z,43.80
2019-02-14T12:29:01.738Z,42.31
2019-02-14T12:31:33.373Z,42.76
2019-02-14T12:34:04.234Z,42.98
2019-02-14T12:36:34.397Z,43.40
2019-02-14T12:39:09.806Z,41.83
2019-02-14T12:41:38.157Z,42.90
2019-02-14T12:44:08.578Z,42.55
2019-02-14T12:46:39.053Z,42.07
2019-02-14T12:49:10.454Z,42.62
2019-02-14T12:51:41.875Z,41.27
2019-02-14T12:54:12.002Z,41.36
2019-02-14T12:56:42.103Z,40.51
2019-02-14T12:59:12.066Z,41.11
2019-02-14T13:01:42.181Z,40.60
2019-02-14T13:04:12.303Z,41.23
2019-02-14T13:06:43.425Z,40.98
2019-02-14T13:09:20.171Z,41.06
2019-02-14T13:11:45.833Z,41.11
2019-02-14T13:14:16.039Z,38.81
2019-02-14T13:16:46.210Z,38.62
2019-02-14T13:19:16.355Z,38.23
2019-02-14T13:21:46.508Z,38.31
2019-02-14T13:24:16.573Z,37.45
2019-02-14T13:26:46.692Z,36.33
2019-02-14T13:29:16.813Z,36.48
2019-02-14T13:31:47.395Z,36.82
2019-02-14T13:34:17.535Z,36.33
2019-02-14T13:36:47.829Z,35.31
2019-02-14T13:39:17.984Z,36.56
2019-02-14T13:41:48.117Z,36.90
2019-02-14T13:44:18.315Z,35.08
2019-02-14T13:46:48.481Z,34.41
2019-02-14T13:49:19.009Z,35.63
2019-02-14T13:51:49.135Z,36.21
2019-02-14T13:54:19.711Z,36.72
2019-02-14T13:56:54.146Z,36.75
2019-02-14T13:59:21.743Z,35.86
2019-02-14T14:01:51.928Z,35.38
2019-02-14T14:04:22.061Z,36.10
2019-02-14T14:06:52.453Z,37.01
2019-02-14T14:09:22.787Z,37.53
2019-02-14T14:11:54.545Z,37.07
2019-02-14T14:14:24.798Z,35.87
2019-02-14T14:16:54.910Z,36.69
2019-02-14T14:19:28.325Z,36.72
2019-02-14T14:21:58.111Z,36.91
2019-02-14T14:24:28.319Z,36.72
2019-02-14T14:26:58.442Z,37.08
2019-02-14T14:29:28.588Z,37.34
2019-02-14T14:31:58.908Z,36.67
2019-02-14T14:34:29.045Z,36.91
2019-02-14T14:36:59.190Z,37.60
2019-02-14T14:39:29.567Z,37.92
2019-02-14T14:41:59.702Z,38.41
2019-02-14T14:44:42.857Z,39.08
2019-02-14T14:47:16.162Z,39.27
2019-02-14T14:49:46.301Z,39.60
2019-02-14T14:52:18.882Z,38.93
2019-02-14T14:54:49.147Z,39.38
2019-02-14T14:57:19.286Z,39.53
2019-02-14T14:59:51.150Z,39.14
2019-02-14T15:02:21.298Z,39.33
2019-02-14T15:04:51.488Z,39.63
2019-02-14T15:07:23.102Z,38.91
2019-02-14T15:09:57.426Z,39.33
2019-02-14T15:12:26.060Z,39.56
2019-02-14T15:14:56.494Z,39.18
2019-02-14T15:17:27.125Z,38.95
2019-02-14T15:19:57.289Z,39.50
2019-02-14T15:22:28.951Z,37.20
2019-02-14T15:24:59.157Z,36.52
2019-02-14T15:27:29.421Z,37.19
2019-02-14T15:29:59.544Z,37.73
2019-02-14T15:32:29.874Z,38.42
2019-02-14T15:35:00.023Z,39.17
2019-02-14T15:37:30.193Z,39.42
2019-02-14T15:40:08.650Z,39.44
2019-02-14T15:42:32.482Z,39.53
2019-02-14T15:45:02.699Z,40.22
2019-02-14T15:47:33.828Z,40.55
2019-02-14T15:50:06.068Z,41.07
2019-02-14T15:52:36.054Z,41.39
2019-02-14T15:55:06.298Z,41.54
2019-02-14T15:57:36.436Z,41.99
2019-02-14T16:00:10.468Z,42.28
2019-02-14T16:02:47.908Z,42.73
2019-02-14T16:05:20.903Z,43.10
2019-02-14T16:07:51.123Z,43.72
2019-02-14T16:10:24.995Z,44.25
2019-02-14T16:12:56.377Z,44.77
2019-02-14T16:15:31.057Z,45.12
2019-02-14T16:18:02.767Z,45.36
2019-02-14T16:20:32.990Z,45.58
2019-02-14T16:23:04.211Z,45.98
2019-02-14T16:25:35.127Z,46.29
2019-02-14T16:28:05.245Z,46.62
2019-02-14T16:30:38.463Z,46.61
2019-02-14T16:33:08.802Z,47.22
2019-02-14T16:35:42.149Z,47.75
2019-02-14T16:38:14.051Z,48.29
2019-02-14T16:40:44.571Z,49.05
2019-02-14T16:43:14.850Z,49.02
2019-02-14T16:45:45.219Z,49.49
2019-02-14T16:48:25.334Z,49.76
2019-02-14T16:50:56.829Z,50.12
2019-02-14T16:53:26.955Z,50.38
2019-02-14T16:56:02.094Z,50.61
2019-02-14T16:58:29.502Z,50.85
2019-02-14T17:01:01.344Z,51.15
2019-02-14T17:03:32.597Z,51.40
2019-02-14T17:06:02.803Z,51.54
2019-02-14T17:08:33.906Z,51.96
2019-02-14T17:11:04.123Z,52.09
2019-02-14T17:13:34.206Z,52.65
2019-02-14T17:16:05.020Z,53.10
2019-02-14T17:18:41.382Z,53.15
2019-02-14T17:21:13.331Z,53.36
2019-02-14T17:23:43.689Z,53.73
2019-02-14T17:26:14.981Z,53.72
2019-02-14T17:28:45.200Z,53.93
2019-02-14T17:31:15.454Z,54.18
2019-02-14T17:33:48.768Z,54.19
2019-02-14T17:36:26.098Z,54.42
2019-02-14T17:38:56.313Z,54.64
2019-02-14T17:41:26.499Z,54.87
2019-02-14T17:44:05.839Z,55.02
2019-02-14T17:46:41.492Z,55.08
2019-02-14T17:49:13.367Z,55.21
2019-02-14T17:51:45.269Z,55.60
2019-02-14T17:54:15.548Z,55.79
2019-02-14T17:56:45.730Z,56.00
2019-02-14T17:59:21.211Z,56.27
2019-02-14T18:01:55.473Z,56.46
2019-02-14T18:04:27.364Z,56.81
2019-02-14T18:06:57.900Z,56.75
2019-02-14T18:09:28.360Z,57.13
2019-02-14T18:11:58.551Z,57.44
2019-02-14T18:14:28.812Z,57.51
2019-02-14T18:17:00.254Z,57.42
2019-02-14T18:19:33.026Z,57.59
2019-02-14T18:22:03.231Z,57.67
2019-02-14T18:24:33.417Z,57.81
2019-02-14T18:27:03.630Z,57.98
2019-02-14T18:29:33.853Z,58.17
2019-02-14T18:32:04.001Z,58.31
2019-02-14T18:34:34.322Z,58.20
2019-02-14T18:37:04.665Z,58.53
2019-02-14T18:39:34.818Z,58.80
2019-02-14T18:42:05.271Z,58.96
2019-02-14T18:44:35.803Z,59.02
2019-02-14T18:47:06.207Z,59.15
2019-02-14T18:49:36.507Z,59.61
2019-02-14T18:52:08.585Z,59.49
2019-02-14T18:54:38.921Z,59.67
2019-02-14T18:57:09.162Z,59.77
2019-02-14T18:59:39.417Z,59.88
2019-02-14T19:02:09.538Z,60.06
2019-02-14T19:04:39.821Z,60.25
2019-02-14T19:07:10.266Z,60.60
2019-02-14T19:09:41.297Z,60.73
2019-02-14T19:12:13.736Z,60.75
2019-02-14T19:14:44.088Z,60.81
2019-02-14T19:17:19.363Z,60.87
2019-02-14T19:19:49.632Z,60.76
2019-02-14T19:22:19.894Z,60.75
2019-02-14T19:24:51.101Z,61.03
2019-02-14T19:27:21.277Z,61.01
2019-02-14T19:29:51.541Z,61.25
2019-02-14T19:32:21.705Z,61.49
2019-02-14T19:34:52.513Z,61.33
2019-02-14T19:37:22.826Z,61.33
2019-02-14T19:39:55.016Z,61.08
2019-02-14T19:42:25.557Z,61.01
2019-02-14T19:44:56.073Z,61.39
2019-02-14T19:47:27.290Z,61.11
2019-02-14T19:49:58.508Z,61.00
2019-02-14T19:52:29.067Z,61.51
2019-02-14T19:54:59.324Z,61.72
2019-02-14T19:57:29.525Z,61.05
2019-02-14T19:59:59.935Z,61.14
2019-02-14T20:02:30.214Z,61.70
2019-02-14T20:05:00.544Z,61.42
2019-02-14T20:07:31.032Z,61.09
2019-02-14T20:10:01.240Z,60.59
2019-02-14T20:12:31.597Z,60.58
2019-02-14T20:15:01.889Z,60.85
2019-02-14T20:17:32.536Z,61.11
2019-02-14T20:20:03.019Z,60.79
2019-02-14T20:22:33.235Z,61.28
2019-02-14T20:25:03.474Z,61.00
2019-02-14T20:27:33.751Z,60.94
2019-02-14T20:30:04.200Z,61.16
2019-02-14T20:32:34.745Z,60.98
2019-02-14T20:35:05.171Z,60.95
2019-02-14T20:37:35.552Z,60.98
2019-02-14T20:40:07.762Z,61.29
2019-02-14T20:42:38.312Z,61.33
2019-02-14T20:45:09.153Z,61.00
2019-02-14T20:47:40.583Z,61.42
2019-02-14T20:50:12.473Z,61.34
2019-02-14T20:52:42.829Z,61.59
2019-02-14T20:55:15.010Z,61.75
2019-02-14T20:57:45.779Z,61.38
2019-02-14T21:00:30.105Z,61.31
2019-02-14T21:03:00.535Z,62.05
2019-02-14T21:05:30.984Z,61.78
2019-02-14T21:08:01.333Z,62.28
2019-02-14T21:10:34.401Z,62.23
2019-02-14T21:13:07.760Z,61.55
2019-02-14T21:15:41.201Z,62.04
2019-02-14T21:18:17.612Z,61.97
2019-02-14T21:20:48.113Z,62.41
2019-02-14T21:23:18.575Z,62.12
2019-02-14T21:25:48.800Z,62.28
2019-02-14T21:28:19.126Z,62.55
2019-02-14T21:30:49.365Z,62.76
2019-02-14T21:33:19.712Z,62.93
2019-02-14T21:35:50.069Z,62.10
2019-02-14T21:38:20.369Z,62.60
2019-02-14T21:40:50.693Z,62.69
2019-02-14T21:43:20.849Z,62.80
2019-02-14T21:45:52.215Z,62.91
2019-02-14T21:48:22.494Z,62.89
2019-02-14T21:50:52.699Z,62.95
2019-02-14T21:53:22.813Z,62.77
2019-02-14T21:55:53.018Z,62.77
2019-02-14T21:58:24.331Z,63.15
2019-02-14T22:00:54.836Z,62.74
2019-02-14T22:03:26.057Z,63.28
2019-02-14T22:05:56.354Z,62.81
2019-02-14T22:08:26.647Z,62.90
2019-02-14T22:10:56.890Z,63.07
2019-02-14T22:13:27.087Z,62.88
2019-02-14T22:15:57.203Z,63.08
2019-02-14T22:18:27.346Z,62.46
2019-02-14T22:20:59.170Z,62.64
2019-02-14T22:23:29.382Z,62.40
2019-02-14T22:25:59.581Z,62.70
2019-02-14T22:28:29.727Z,62.79
2019-02-14T22:30:59.863Z,63.26
2019-02-14T22:33:30.060Z,63.29
2019-02-14T22:36:00.298Z,63.38
2019-02-14T22:38:30.415Z,63.29
2019-02-14T22:41:00.584Z,63.44
2019-02-14T22:43:30.778Z,63.11
2019-02-14T22:46:00.978Z,63.09
2019-02-14T22:48:31.242Z,63.74
2019-02-14T22:51:01.428Z,63.97
2019-02-14T22:53:31.626Z,63.69
2019-02-14T22:56:01.754Z,63.94
2019-02-14T22:58:32.952Z,63.76
2019-02-14T23:01:03.300Z,63.41
2019-02-14T23:03:34.078Z,63.51
2019-02-14T23:06:04.170Z,63.68
2019-02-14T23:08:34.624Z,63.64
2019-02-14T23:11:04.960Z,63.77
2019-02-14T23:13:35.152Z,63.73
2019-02-14T23:16:05.390Z,63.58
2019-02-14T23:18:35.572Z,63.71
2019-02-14T23:21:05.696Z,63.42
2019-02-14T23:23:36.880Z,64.18
2019-02-14T23:26:07.330Z,64.17
2019-02-14T23:28:37.591Z,63.93
2019-02-14T23:31:07.796Z,63.65
2019-02-14T23:33:37.936Z,64.24
2019-02-14T23:36:08.038Z,64.17
2019-02-14T23:38:38.173Z,64.38
2019-02-14T23:41:08.278Z,64.50
2019-02-14T23:43:38.423Z,64.23
2019-02-14T23:46:08.584Z,64.36
2019-02-14T23:48:38.761Z,64.60
2019-02-14T23:51:10.045Z,64.63
2019-02-14T23:53:40.204Z,64.64
2019-02-14T23:56:10.406Z,64.65
2019-02-14T23:58:41.382Z,64.35
